Time;durP1;ratioP1;P1;durP2;ratioP2;P2;SDS_P1;SDS_P2;PMS_P1;PMS_P2;Temp;Humidity;BMP_temperature;BMP_pressure;BME280_temperature;BME280_humidity;BME280_pressure;Samples;Min_cycle;Max_cycle;Signal;HPM_P1;HPM_P2
2024/01/07 00:02:05;;;;;;;9.63;5.70;;;;;;;;;;10286756;28;20064;-64
2024/01/07 00:07:04;;;;;;;6.13;3.78;;;;;;;;;;10288197;28;20074;-64
2024/01/07 00:12:04;;;;;;;15.02;8.70;;;;;;;;;;10282321;28;20064;-64
2024/01/07 00:17:03;;;;;;;8.65;5.68;;;;;;;;;;10286828;28;20534;-64
2024/01/07 00:22:01;;;;;;;21.13;13.60;;;;;;;;;;10285309;28;20385;-64
2024/01/07 00:26:59;;;;;;;12.43;6.55;;;;;;;;;;10286464;28;20073;-64
2024/01/07 00:31:59;;;;;;;16.17;14.60;;;;;;;;;;10285420;28;20064;-64
2024/01/07 00:36:57;;;;;;;7.78;4.70;;;;;;;;;;10286441;28;20076;-64
2024/01/07 00:41:55;;;;;;;4.72;3.08;;;;;;;;;;10285594;28;20096;-64
2024/01/07 00:46:54;;;;;;;5.03;4.43;;;;;;;;;;10285380;28;20439;-64
2024/01/07 00:51:53;;;;;;;7.18;3.50;;;;;;;;;;10286756;28;20084;-64
2024/01/07 00:56:51;;;;;;;11.43;8.25;;;;;;;;;;10284839;28;20067;-64
2024/01/07 01:01:50;;;;;;;11.23;7.50;;;;;;;;;;10285725;28;20069;-64
2024/01/07 01:06:48;;;;;;;6.80;4.20;;;;;;;;;;10284241;28;20080;-64
2024/01/07 01:11:49;;;;;;;6.13;3.38;;;;;;;;;;10286672;28;20074;-64
2024/01/07 01:16:47;;;;;;;4.80;3.75;;;;;;;;;;10285148;28;20080;-64
2024/01/07 01:21:46;;;;;;;7.30;3.55;;;;;;;;;;10293408;28;20053;-64
2024/01/07 01:26:44;;;;;;;6.90;4.03;;;;;;;;;;10288068;28;20073;-64
2024/01/07 01:31:45;;;;;;;6.55;4.18;;;;;;;;;;10292709;28;20072;-64
2024/01/07 01:36:44;;;;;;;6.85;3.35;;;;;;;;;;10290496;28;20095;-64
2024/01/07 01:41:42;;;;;;;5.32;3.65;;;;;;;;;;10293766;28;20071;-64
2024/01/07 01:46:40;;;;;;;4.13;3.22;;;;;;;;;;10291718;28;20068;-64
2024/01/07 01:51:40;;;;;;;8.35;3.35;;;;;;;;;;10292457;28;20079;-64
2024/01/07 01:56:39;;;;;;;7.10;3.25;;;;;;;;;;10290992;28;20076;-64
2024/01/07 02:01:37;;;;;;;5.45;3.53;;;;;;;;;;10290264;28;20087;-64
2024/01/07 02:06:36;;;;;;;5.30;4.22;;;;;;;;;;10293482;28;20114;-65
2024/01/07 02:11:35;;;;;;;7.80;6.20;;;;;;;;;;10292245;28;20083;-67
2024/01/07 02:16:34;;;;;;;12.43;9.15;;;;;;;;;;10298491;28;20049;-66
2024/01/07 02:21:32;;;;;;;9.93;7.05;;;;;;;;;;10287007;28;20099;-64
2024/01/07 02:26:32;;;;;;;9.52;4.60;;;;;;;;;;10289717;28;20069;-64
2024/01/07 02:31:30;;;;;;;6.80;3.67;;;;;;;;;;10290465;28;20077;-64
2024/01/07 02:36:28;;;;;;;7.22;4.63;;;;;;;;;;10290026;28;20091;-64
2024/01/07 02:41:27;;;;;;;6.32;4.65;;;;;;;;;;10289953;28;20553;-65
2024/01/07 02:46:26;;;;;;;7.22;4.82;;;;;;;;;;10284610;28;20158;-64
2024/01/07 02:51:25;;;;;;;7.13;4.75;;;;;;;;;;10290331;28;20089;-64
2024/01/07 02:56:23;;;;;;;6.32;3.80;;;;;;;;;;10289538;28;20071;-65
2024/01/07 03:01:22;;;;;;;5.65;4.55;;;;;;;;;;10291837;28;20076;-64
2024/01/07 03:06:22;;;;;;;5.20;4.15;;;;;;;;;;10289568;28;20088;-64
2024/01/07 03:11:20;;;;;;;6.90;3.03;;;;;;;;;;10289254;28;20526;-64
2024/01/07 03:16:22;;;;;;;8.13;3.75;;;;;;;;;;10290147;28;20076;-64
2024/01/07 03:21:22;;;;;;;4.38;3.67;;;;;;;;;;10291029;28;20083;-64
2024/01/07 03:26:20;;;;;;;5.18;2.90;;;;;;;;;;10288380;28;20083;-64
2024/01/07 03:31:20;;;;;;;5.72;3.40;;;;;;;;;;10288105;28;20068;-64
2024/01/07 03:36:19;;;;;;;5.90;3.78;;;;;;;;;;10288873;28;20084;-64
2024/01/07 03:41:19;;;;;;;4.97;2.92;;;;;;;;;;10287789;28;20065;-64
2024/01/07 03:46:17;;;;;;;8.35;4.25;;;;;;;;;;10289340;28;20083;-64
2024/01/07 03:51:16;;;;;;;5.60;2.97;;;;;;;;;;10284503;28;20525;-64
2024/01/07 03:56:14;;;;;;;2.50;1.95;;;;;;;;;;10288093;28;20075;-63
2024/01/07 04:01:18;;;;;;;3.03;2.35;;;;;;;;;;10287599;28;20083;-64
2024/01/07 04:06:17;;;;;;;8.30;2.70;;;;;;;;;;10286776;28;20076;-64
2024/01/07 04:11:15;;;;;;;5.07;3.05;;;;;;;;;;10288492;28;20530;-64
2024/01/07 04:16:18;;;;;;;5.25;2.97;;;;;;;;;;10286909;28;20075;-64
2024/01/07 04:21:16;;;;;;;5.97;2.40;;;;;;;;;;10282694;28;20091;-63
2024/01/07 04:26:15;;;;;;;3.67;2.67;;;;;;;;;;10286976;28;20461;-63
2024/01/07 04:31:13;;;;;;;1.98;1.88;;;;;;;;;;10293063;28;20554;-64
2024/01/07 04:36:13;;;;;;;3.78;3.00;;;;;;;;;;10294253;28;20522;-64
2024/01/07 04:41:11;;;;;;;6.05;2.63;;;;;;;;;;10288051;28;20076;-64
2024/01/07 04:46:10;;;;;;;6.00;2.53;;;;;;;;;;10282626;28;20076;-64
2024/01/07 04:51:09;;;;;;;3.03;2.65;;;;;;;;;;10285620;28;20068;-64
2024/01/07 04:56:08;;;;;;;3.35;2.72;;;;;;;;;;10287388;28;20069;-65
2024/01/07 05:01:06;;;;;;;4.40;2.97;;;;;;;;;;10287267;28;20094;-64
2024/01/07 05:06:05;;;;;;;3.72;2.60;;;;;;;;;;10293680;28;20080;-63
2024/01/07 05:11:03;;;;;;;3.63;2.85;;;;;;;;;;10295124;28;20068;-65
2024/01/07 05:16:03;;;;;;;6.38;5.13;;;;;;;;;;10293956;28;20056;-65
2024/01/07 05:21:01;;;;;;;7.18;3.30;;;;;;;;;;10293481;28;20459;-65
2024/01/07 05:26:00;;;;;;;5.47;3.67;;;;;;;;;;10294874;28;20079;-65
2024/01/07 05:30:58;;;;;;;4.55;3.88;;;;;;;;;;10289277;28;20068;-64
2024/01/07 05:35:58;;;;;;;4.60;3.08;;;;;;;;;;10295366;28;20475;-64
2024/01/07 05:40:57;;;;;;;4.18;3.05;;;;;;;;;;10292031;28;20061;-65
2024/01/07 05:45:55;;;;;;;6.13;3.72;;;;;;;;;;10293396;28;20090;-65
2024/01/07 05:50:53;;;;;;;8.98;3.88;;;;;;;;;;10288826;28;20068;-65
2024/01/07 05:55:52;;;;;;;6.43;4.30;;;;;;;;;;10293056;28;20494;-65
2024/01/07 06:00:51;;;;;;;7.07;4.38;;;;;;;;;;10291853;28;20087;-65
2024/01/07 06:05:49;;;;;;;6.82;5.07;;;;;;;;;;10292436;28;20136;-63
2024/01/07 06:10:47;;;;;;;9.88;6.65;;;;;;;;;;10291156;28;20506;-64
2024/01/07 06:15:47;;;;;;;8.00;6.72;;;;;;;;;;10289155;28;20076;-63
2024/01/07 06:20:45;;;;;;;11.90;7.68;;;;;;;;;;10293871;28;20520;-65
2024/01/07 06:25:43;;;;;;;7.13;6.38;;;;;;;;;;10291538;28;20080;-63
2024/01/07 06:30:41;;;;;;;10.02;7.13;;;;;;;;;;10291854;28;20073;-63
2024/01/07 06:35:41;;;;;;;9.70;6.50;;;;;;;;;;10290968;28;20080;-63
2024/01/07 06:40:40;;;;;;;7.60;4.95;;;;;;;;;;10293659;28;20501;-64
2024/01/07 06:45:38;;;;;;;9.20;6.32;;;;;;;;;;10291658;28;20076;-64
2024/01/07 06:50:36;;;;;;;5.13;3.95;;;;;;;;;;10290184;28;20495;-63
2024/01/07 06:55:36;;;;;;;7.85;5.38;;;;;;;;;;10291561;28;20065;-64
2024/01/07 07:00:34;;;;;;;8.80;5.93;;;;;;;;;;10285595;28;20061;-64
2024/01/07 07:05:33;;;;;;;6.30;5.50;;;;;;;;;;10290015;28;20068;-64
2024/01/07 07:10:31;;;;;;;7.38;4.97;;;;;;;;;;10288346;28;20061;-64
2024/01/07 07:15:31;;;;;;;10.13;6.38;;;;;;;;;;10290276;28;20071;-64
2024/01/07 07:20:29;;;;;;;6.00;4.70;;;;;;;;;;10286350;28;20064;-64
2024/01/07 07:25:28;;;;;;;8.05;4.85;;;;;;;;;;10286313;28;20079;-64
2024/01/07 07:30:26;;;;;;;8.35;5.50;;;;;;;;;;10289488;28;20080;-64
2024/01/07 07:35:26;;;;;;;5.88;4.72;;;;;;;;;;10288429;28;20081;-64
2024/01/07 07:40:24;;;;;;;8.27;4.93;;;;;;;;;;10288626;28;20435;-63
2024/01/07 07:45:22;;;;;;;7.47;5.00;;;;;;;;;;10287042;28;20065;-64
2024/01/07 07:50:21;;;;;;;11.23;7.00;;;;;;;;;;10289012;28;20083;-64
2024/01/07 07:55:21;;;;;;;6.65;5.78;;;;;;;;;;10287697;28;20494;-64
2024/01/07 08:00:20;;;;;;;5.63;4.03;;;;;;;;;;10287758;28;20451;-64
2024/01/07 08:05:18;;;;;;;6.95;5.13;;;;;;;;;;10287556;28;20107;-64
2024/01/07 08:10:17;;;;;;;8.05;6.57;;;;;;;;;;10282410;28;20087;-64
2024/01/07 08:15:16;;;;;;;8.00;4.72;;;;;;;;;;10287084;28;20094;-64
2024/01/07 08:20:15;;;;;;;6.82;4.35;;;;;;;;;;10285071;28;20064;-65
2024/01/07 08:25:13;;;;;;;11.13;8.48;;;;;;;;;;10287586;28;20064;-64
2024/01/07 08:30:13;;;;;;;5.65;4.35;;;;;;;;;;10288827;28;20068;-64
2024/01/07 08:35:13;;;;;;;3.22;2.92;;;;;;;;;;10285628;28;20084;-64
2024/01/07 08:40:15;;;;;;;4.75;3.72;;;;;;;;;;10285582;28;20080;-65
2024/01/07 08:45:13;;;;;;;5.70;3.65;;;;;;;;;;10287171;28;20604;-65
2024/01/07 08:50:13;;;;;;;5.55;4.22;;;;;;;;;;10287139;28;20072;-65
2024/01/07 08:55:11;;;;;;;5.95;4.13;;;;;;;;;;10286891;28;20064;-65
2024/01/07 09:00:10;;;;;;;4.03;3.30;;;;;;;;;;10281413;28;20064;-64
2024/01/07 09:05:08;;;;;;;16.25;5.85;;;;;;;;;;10281559;28;20076;-65
2024/01/07 09:10:10;;;;;;;5.07;3.60;;;;;;;;;;10286106;28;20107;-65
2024/01/07 09:15:10;;;;;;;4.65;3.70;;;;;;;;;;10285761;28;20065;-64
2024/01/07 09:20:09;;;;;;;7.90;2.47;;;;;;;;;;10285910;28;20761;-64
2024/01/07 09:25:09;;;;;;;8.95;6.80;;;;;;;;;;10285723;28;20562;-63
2024/01/07 09:30:10;;;;;;;15.43;6.80;;;;;;;;;;10285450;28;20469;-63
2024/01/07 09:35:09;;;;;;;12.60;6.25;;;;;;;;;;10285635;28;20081;-64
2024/01/07 09:40:09;;;;;;;7.38;4.60;;;;;;;;;;10283486;28;20107;-63
2024/01/07 09:45:08;;;;;;;10.40;8.02;;;;;;;;;;10285814;28;20072;-65
2024/01/07 09:50:06;;;;;;;6.63;4.53;;;;;;;;;;10289046;28;20087;-64
2024/01/07 09:55:08;;;;;;;8.23;5.93;;;;;;;;;;10292778;28;20503;-64
2024/01/07 10:00:10;;;;;;;5.47;4.20;;;;;;;;;;10293404;28;20126;-65
2024/01/07 10:05:11;;;;;;;13.05;11.00;;;;;;;;;;10291736;28;20495;-65
2024/01/07 10:10:14;;;;;;;17.63;15.75;;;;;;;;;;10290942;28;20065;-65
2024/01/07 10:15:14;;;;;;;20.92;17.00;;;;;;;;;;10294939;28;20063;-64
2024/01/07 10:20:13;;;;;;;22.17;19.77;;;;;;;;;;10290583;28;20068;-65
2024/01/07 10:25:11;;;;;;;22.75;20.17;;;;;;;;;;10288369;28;20073;-64
2024/01/07 10:30:10;;;;;;;17.73;15.80;;;;;;;;;;10288161;28;20478;-64
2024/01/07 10:35:14;;;;;;;23.00;19.48;;;;;;;;;;10287483;28;20080;-64
2024/01/07 10:40:12;;;;;;;21.50;19.20;;;;;;;;;;10289117;28;20084;-64
2024/01/07 10:45:11;;;;;;;17.58;15.68;;;;;;;;;;10289663;28;20064;-64
2024/01/07 10:50:12;;;;;;;23.30;16.75;;;;;;;;;;10290628;28;20107;-64
2024/01/07 10:55:11;;;;;;;19.10;16.77;;;;;;;;;;10290960;28;20071;-64
2024/01/07 11:00:18;;;;;;;21.00;17.20;;;;;;;;;;10284760;28;20064;-64
2024/01/07 11:05:21;;;;;;;20.13;16.42;;;;;;;;;;10290198;28;20083;-64
2024/01/07 11:10:21;;;;;;;13.57;12.13;;;;;;;;;;10297200;28;20080;-64
2024/01/07 11:15:43;;;;;;;14.82;12.95;;;;;;;;;;10290258;28;20529;-64
2024/01/07 11:20:43;;;;;;;13.35;10.45;;;;;;;;;;10290452;28;20083;-64
2024/01/07 11:25:41;;;;;;;11.88;10.68;;;;;;;;;;10288018;28;20073;-64
2024/01/07 11:30:40;;;;;;;19.95;17.90;;;;;;;;;;10289071;28;20068;-64
2024/01/07 11:36:01;;;;;;;14.55;11.27;;;;;;;;;;10291071;28;20076;-65
2024/01/07 11:41:00;;;;;;;21.02;17.40;;;;;;;;;;10290426;28;20080;-64
2024/01/07 11:45:58;;;;;;;23.30;19.42;;;;;;;;;;10288307;28;20519;-64
2024/01/07 11:50:58;;;;;;;19.15;16.50;;;;;;;;;;10288227;28;20529;-64
2024/01/07 11:55:56;;;;;;;26.05;17.50;;;;;;;;;;10286762;28;20068;-64
2024/01/07 12:00:54;;;;;;;13.95;11.45;;;;;;;;;;10286607;28;20560;-65
2024/01/07 12:05:52;;;;;;;8.57;7.68;;;;;;;;;;10287674;28;20068;-64
2024/01/07 12:10:53;;;;;;;13.07;11.80;;;;;;;;;;10286404;28;20076;-64
2024/01/07 12:15:51;;;;;;;16.83;15.02;;;;;;;;;;10285711;28;20130;-63
2024/01/07 12:20:56;;;;;;;20.63;18.50;;;;;;;;;;10286096;28;20065;-64
2024/01/07 12:25:56;;;;;;;23.00;16.20;;;;;;;;;;10287237;28;20075;-63
2024/01/07 12:30:54;;;;;;;22.65;14.02;;;;;;;;;;10282910;28;20111;-64
2024/01/07 12:35:53;;;;;;;23.42;15.52;;;;;;;;;;10285437;28;20529;-64
2024/01/07 12:40:51;;;;;;;31.90;20.38;;;;;;;;;;10286820;28;20474;-65
2024/01/07 12:45:51;;;;;;;18.17;13.20;;;;;;;;;;10285962;28;20075;-64
2024/01/07 12:50:49;;;;;;;99.80;89.80;;;;;;;;;;10287824;28;20557;-65
2024/01/07 12:55:47;;;;;;;26.65;21.80;;;;;;;;;;10285830;28;20076;-65
2024/01/07 13:00:46;;;;;;;30.20;21.73;;;;;;;;;;10283158;28;20506;-64
2024/01/07 13:05:48;;;;;;;49.30;38.03;;;;;;;;;;10286559;28;20068;-63
2024/01/07 13:10:46;;;;;;;37.08;30.08;;;;;;;;;;10286324;28;20081;-64
2024/01/07 13:15:45;;;;;;;17.58;14.32;;;;;;;;;;10285965;28;20056;-63
2024/01/07 13:20:43;;;;;;;20.88;17.30;;;;;;;;;;10286806;28;20072;-63
2024/01/07 13:25:43;;;;;;;21.80;18.98;;;;;;;;;;10292064;28;20037;-63
2024/01/07 13:30:42;;;;;;;34.47;27.13;;;;;;;;;;10293411;28;20084;-63
2024/01/07 13:35:40;;;;;;;24.48;21.83;;;;;;;;;;10295086;28;20053;-64
2024/01/07 13:40:40;;;;;;;26.65;21.30;;;;;;;;;;10292541;28;20076;-65
2024/01/07 13:45:40;;;;;;;25.05;20.67;;;;;;;;;;10295834;28;20073;-64
2024/01/07 13:50:39;;;;;;;42.75;31.00;;;;;;;;;;10288986;28;20086;-64
2024/01/07 13:55:37;;;;;;;40.20;26.48;;;;;;;;;;10292267;28;20080;-65
2024/01/07 14:00:35;;;;;;;53.78;37.25;;;;;;;;;;10293034;28;20068;-63
2024/01/07 14:05:35;;;;;;;40.35;30.75;;;;;;;;;;10292440;28;20478;-64
2024/01/07 14:10:33;;;;;;;39.90;28.52;;;;;;;;;;10293143;28;20080;-64
2024/01/07 14:15:32;;;;;;;32.85;27.90;;;;;;;;;;10290819;28;20068;-65
2024/01/07 14:20:30;;;;;;;22.85;19.75;;;;;;;;;;10293543;28;20065;-65
2024/01/07 14:25:29;;;;;;;24.63;20.73;;;;;;;;;;10291034;28;20094;-64
2024/01/07 14:30:28;;;;;;;29.23;21.77;;;;;;;;;;10291833;28;20515;-65
2024/01/07 14:35:29;;;;;;;23.35;19.52;;;;;;;;;;10290488;28;20087;-64
2024/01/07 14:40:27;;;;;;;20.27;17.95;;;;;;;;;;10290957;28;20079;-64
2024/01/07 14:45:27;;;;;;;33.08;24.08;;;;;;;;;;10290608;28;20060;-65
2024/01/07 14:50:25;;;;;;;34.00;26.23;;;;;;;;;;10285618;28;20088;-63
2024/01/07 14:55:34;;;;;;;29.38;24.60;;;;;;;;;;10285808;28;20474;-64
2024/01/07 15:00:33;;;;;;;29.80;23.23;;;;;;;;;;10289923;28;20079;-64
2024/01/07 15:05:32;;;;;;;36.78;29.83;;;;;;;;;;10290810;28;20076;-64
2024/01/07 15:10:31;;;;;;;24.73;20.75;;;;;;;;;;10289056;28;20502;-63
2024/01/07 15:15:29;;;;;;;34.40;26.92;;;;;;;;;;10292091;28;20076;-65
2024/01/07 15:20:30;;;;;;;25.98;23.17;;;;;;;;;;10289103;28;20467;-65
2024/01/07 15:25:28;;;;;;;27.02;23.77;;;;;;;;;;10286367;28;20064;-64
2024/01/07 15:30:26;;;;;;;25.92;21.17;;;;;;;;;;10289604;28;20076;-64
2024/01/07 15:35:25;;;;;;;28.48;24.65;;;;;;;;;;10288739;28;20080;-65
2024/01/07 15:40:24;;;;;;;33.90;27.83;;;;;;;;;;10289465;28;20080;-64
2024/01/07 15:45:23;;;;;;;24.90;22.25;;;;;;;;;;10288153;28;20079;-63
2024/01/07 15:50:21;;;;;;;23.38;20.38;;;;;;;;;;10292635;28;20096;-64
2024/01/07 15:55:20;;;;;;;27.55;20.80;;;;;;;;;;10287950;28;20069;-64
2024/01/07 16:00:20;;;;;;;46.88;34.25;;;;;;;;;;10287476;28;20068;-65
2024/01/07 16:05:18;;;;;;;29.35;23.88;;;;;;;;;;10287897;28;20071;-65
2024/01/07 16:10:16;;;;;;;28.33;23.52;;;;;;;;;;10282918;28;20087;-64
2024/01/07 16:15:15;;;;;;;31.98;26.08;;;;;;;;;;10287581;28;20087;-65
2024/01/07 16:20:15;;;;;;;28.65;25.63;;;;;;;;;;10287970;28;20509;-64
2024/01/07 16:25:14;;;;;;;19.73;17.58;;;;;;;;;;10287666;28;20545;-64
2024/01/07 16:30:12;;;;;;;21.38;17.95;;;;;;;;;;10286718;28;20083;-64
2024/01/07 16:35:11;;;;;;;41.83;34.33;;;;;;;;;;10284402;28;20076;-64
2024/01/07 16:40:11;;;;;;;28.95;23.10;;;;;;;;;;10287412;28;20770;-65
2024/01/07 16:45:10;;;;;;;25.02;20.27;;;;;;;;;;10286824;28;20064;-63
2024/01/07 16:50:08;;;;;;;18.55;16.40;;;;;;;;;;10286884;28;20154;-63
2024/01/07 16:55:22;;;;;;;15.23;13.60;;;;;;;;;;10280463;28;20073;-63
2024/01/07 17:00:21;;;;;;;17.88;14.15;;;;;;;;;;10292664;28;20072;-64
2024/01/07 17:05:19;;;;;;;21.45;16.00;;;;;;;;;;10294005;28;20075;-64
2024/01/07 17:10:18;;;;;;;16.27;13.48;;;;;;;;;;10293299;28;20080;-64
2024/01/07 17:15:17;;;;;;;16.42;12.60;;;;;;;;;;10294422;28;20072;-64
2024/01/07 17:20:17;;;;;;;16.40;12.18;;;;;;;;;;10289340;28;20080;-64
2024/01/07 17:25:15;;;;;;;14.25;11.88;;;;;;;;;;10292895;28;20064;-64
2024/01/07 17:30:16;;;;;;;12.90;10.05;;;;;;;;;;10293532;28;20080;-63
2024/01/07 17:35:16;;;;;;;12.55;10.23;;;;;;;;;;10293733;28;20550;-64
2024/01/07 17:40:14;;;;;;;13.80;9.95;;;;;;;;;;10292960;28;20443;-64
2024/01/07 17:45:14;;;;;;;10.88;8.52;;;;;;;;;;10293438;28;20069;-63
2024/01/07 17:50:13;;;;;;;15.02;11.52;;;;;;;;;;10292275;28;20103;-64
2024/01/07 17:55:15;;;;;;;10.60;9.50;;;;;;;;;;10293043;28;20082;-64
2024/01/07 18:00:14;;;;;;;9.77;8.75;;;;;;;;;;10290929;28;20080;-64
2024/01/07 18:05:12;;;;;;;11.73;10.52;;;;;;;;;;10292711;28;20081;-64
2024/01/07 18:10:11;;;;;;;9.65;8.70;;;;;;;;;;10290065;28;20084;-65
2024/01/07 18:15:11;;;;;;;11.45;9.32;;;;;;;;;;10290544;28;20072;-65
2024/01/07 18:20:10;;;;;;;8.75;7.90;;;;;;;;;;10290953;28;20079;-63
2024/01/07 18:25:08;;;;;;;11.27;10.07;;;;;;;;;;10288367;28;20072;-64
2024/01/07 18:30:07;;;;;;;12.75;11.15;;;;;;;;;;10290717;28;20094;-63
2024/01/07 18:35:07;;;;;;;9.27;7.80;;;;;;;;;;10291277;28;20083;-63
2024/01/07 18:40:09;;;;;;;8.90;8.00;;;;;;;;;;10292373;28;20075;-64
2024/01/07 18:45:07;;;;;;;15.60;11.07;;;;;;;;;;10291336;28;20084;-64
2024/01/07 18:50:07;;;;;;;15.07;8.52;;;;;;;;;;10290979;28;20095;-64
2024/01/07 18:55:08;;;;;;;9.95;8.98;;;;;;;;;;10290926;28;20112;-64
2024/01/07 19:00:07;;;;;;;8.27;7.45;;;;;;;;;;10286387;28;20076;-64
2024/01/07 19:05:07;;;;;;;10.70;6.88;;;;;;;;;;10290684;28;20068;-64
2024/01/07 19:10:06;;;;;;;10.30;7.85;;;;;;;;;;10289139;28;20071;-63
2024/01/07 19:15:05;;;;;;;12.63;8.30;;;;;;;;;;10296404;28;20081;-64
2024/01/07 19:20:04;;;;;;;10.00;8.15;;;;;;;;;;10288293;28;20076;-65
2024/01/07 19:25:04;;;;;;;10.73;8.35;;;;;;;;;;10288236;28;20068;-64
2024/01/07 19:30:02;;;;;;;7.00;6.05;;;;;;;;;;10287569;28;20079;-65
2024/01/07 19:35:00;;;;;;;12.90;9.32;;;;;;;;;;10292564;28;20084;-64
2024/01/07 19:39:59;;;;;;;7.75;6.43;;;;;;;;;;10284733;28;20080;-64
2024/01/07 19:44:59;;;;;;;11.93;7.93;;;;;;;;;;10290129;28;20076;-64
2024/01/07 19:49:58;;;;;;;6.15;5.40;;;;;;;;;;10289429;28;20072;-65
2024/01/07 19:54:56;;;;;;;11.15;6.93;;;;;;;;;;10284913;28;20080;-64
2024/01/07 19:59:54;;;;;;;7.72;6.53;;;;;;;;;;10290188;28;20502;-63
2024/01/07 20:04:54;;;;;;;9.95;5.85;;;;;;;;;;10287011;28;20486;-63
2024/01/07 20:09:52;;;;;;;7.88;4.93;;;;;;;;;;10287542;28;20068;-64
2024/01/07 20:14:50;;;;;;;7.30;4.63;;;;;;;;;;10286385;28;20076;-63
2024/01/07 20:19:49;;;;;;;9.65;6.00;;;;;;;;;;10290062;28;20076;-63
2024/01/07 20:24:48;;;;;;;9.90;4.72;;;;;;;;;;10287812;28;20073;-62
2024/01/07 20:29:47;;;;;;;6.50;4.90;;;;;;;;;;10284409;28;20077;-63
2024/01/07 20:34:45;;;;;;;11.25;5.53;;;;;;;;;;10285560;28;20087;-63
2024/01/07 20:39:44;;;;;;;8.95;6.03;;;;;;;;;;10284120;28;20075;-63
2024/01/07 20:44:44;;;;;;;8.32;5.45;;;;;;;;;;10286306;28;20071;-63
2024/01/07 20:49:42;;;;;;;7.28;5.05;;;;;;;;;;10284592;28;20044;-63
2024/01/07 20:54:41;;;;;;;6.70;5.32;;;;;;;;;;10282498;28;20076;-63
2024/01/07 20:59:41;;;;;;;8.32;4.72;;;;;;;;;;10285324;28;20060;-62
2024/01/07 21:04:43;;;;;;;8.32;5.05;;;;;;;;;;10286494;28;20648;-63
2024/01/07 21:09:42;;;;;;;11.73;4.25;;;;;;;;;;10285653;28;20075;-63
2024/01/07 21:14:40;;;;;;;4.80;4.00;;;;;;;;;;10282556;28;20088;-63
2024/01/07 21:19:38;;;;;;;4.80;4.40;;;;;;;;;;10280849;28;20061;-62
2024/01/07 21:24:38;;;;;;;12.07;7.85;;;;;;;;;;10286226;28;20064;-63
2024/01/07 21:29:36;;;;;;;4.90;3.60;;;;;;;;;;10284651;28;20056;-63
2024/01/07 21:34:35;;;;;;;4.72;3.95;;;;;;;;;;10285349;28;20089;-63
2024/01/07 21:39:34;;;;;;;5.80;3.10;;;;;;;;;;10282787;28;20060;-63
2024/01/07 21:44:33;;;;;;;7.15;3.95;;;;;;;;;;10291386;28;20077;-63
2024/01/07 21:49:32;;;;;;;4.15;3.00;;;;;;;;;;10293548;28;20083;-64
2024/01/07 21:54:30;;;;;;;5.80;3.17;;;;;;;;;;10292438;28;20068;-64
2024/01/07 21:59:28;;;;;;;3.83;2.97;;;;;;;;;;10292645;28;20068;-63
2024/01/07 22:04:29;;;;;;;4.30;2.83;;;;;;;;;;10293037;28;20064;-63
2024/01/07 22:09:27;;;;;;;8.25;3.45;;;;;;;;;;10291144;28;20084;-63
2024/01/07 22:14:25;;;;;;;3.95;2.95;;;;;;;;;;10291816;28;20068;-63
2024/01/07 22:19:24;;;;;;;7.40;3.00;;;;;;;;;;10291661;28;20083;-62
2024/01/07 22:24:24;;;;;;;3.30;2.83;;;;;;;;;;10288584;28;20079;-63
2024/01/07 22:29:23;;;;;;;3.60;2.53;;;;;;;;;;10291266;28;20080;-64
2024/01/07 22:34:21;;;;;;;8.93;3.47;;;;;;;;;;10285380;28;20305;-63
2024/01/07 22:39:19;;;;;;;5.47;3.42;;;;;;;;;;10290818;28;20068;-63
2024/01/07 22:44:19;;;;;;;10.65;6.35;;;;;;;;;;10291092;28;20083;-63
2024/01/07 22:49:17;;;;;;;5.38;3.53;;;;;;;;;;10288279;28;20446;-64
2024/01/07 22:54:16;;;;;;;4.95;2.60;;;;;;;;;;10289941;28;20076;-61
2024/01/07 22:59:14;;;;;;;5.18;2.50;;;;;;;;;;10290547;28;20072;-62
2024/01/07 23:04:14;;;;;;;3.55;3.08;;;;;;;;;;10291205;28;20096;-62
2024/01/07 23:09:12;;;;;;;3.95;3.50;;;;;;;;;;10288973;28;20076;-62
2024/01/07 23:14:11;;;;;;;3.70;3.15;;;;;;;;;;10289330;28;20076;-62
2024/01/07 23:19:09;;;;;;;4.85;3.10;;;;;;;;;;10285023;28;20525;-62
2024/01/07 23:24:09;;;;;;;3.25;2.90;;;;;;;;;;10284653;28;20067;-62
2024/01/07 23:29:07;;;;;;;11.60;3.15;;;;;;;;;;10284722;28;20071;-62
2024/01/07 23:34:05;;;;;;;7.75;3.75;;;;;;;;;;10287953;28;20080;-63
2024/01/07 23:39:04;;;;;;;3.03;2.67;;;;;;;;;;10288288;28;20358;-63
2024/01/07 23:44:03;;;;;;;6.20;2.90;;;;;;;;;;10289848;28;20079;-63
2024/01/07 23:49:01;;;;;;;3.78;3.28;;;;;;;;;;10288038;28;20064;-63
2024/01/07 23:54:00;;;;;;;6.80;3.13;;;;;;;;;;10283309;28;20103;-64
2024/01/07 23:58:58;;;;;;;6.88;4.68;;;;;;;;;;10287350;28;20072;-63
